Time;durP1;ratioP1;P1;durP2;ratioP2;P2;SDS_P1;SDS_P2;PMS_P1;PMS_P2;Temp;Humidity;BMP_temperature;BMP_pressure;BME280_temperature;BME280_humidity;BME280_pressure;Samples;Min_cycle;Max_cycle;Signal;HPM_P1;HPM_P2
2020/08/07 00:01:46;;;;;;;121.13;111.66;;;;;;;21.93;65.10;100738.66;;;;-56
2020/08/07 00:04:46;;;;;;;113.50;104.69;;;;;;;21.92;65.06;100736.39;;;;-56
2020/08/07 00:07:46;;;;;;;113.22;104.32;;;;;;;21.91;65.11;100737.27;;;;-55
2020/08/07 00:10:46;;;;;;;113.34;104.34;;;;;;;21.91;65.08;100736.62;;;;-55
2020/08/07 00:13:46;;;;;;;102.07;94.00;;;;;;;21.90;65.09;100741.93;;;;-56
2020/08/07 00:16:46;;;;;;;105.95;97.64;;;;;;;21.90;65.08;100739.89;;;;-55
2020/08/07 00:19:46;;;;;;;102.22;94.14;;;;;;;21.90;65.13;100737.12;;;;-56
2020/08/07 00:22:46;;;;;;;109.54;100.77;;;;;;;21.90;65.11;100736.95;;;;-56
2020/08/07 00:25:47;;;;;;;118.79;109.30;;;;;;;21.89;65.10;100735.25;;;;-56
2020/08/07 00:28:47;;;;;;;116.17;107.08;;;;;;;21.88;65.08;100735.73;;;;-55
2020/08/07 00:31:47;;;;;;;126.63;116.73;;;;;;;21.89;65.13;100736.62;;;;-55
2020/08/07 00:34:46;;;;;;;135.61;124.71;;;;;;;21.88;65.12;100732.79;;;;-56
2020/08/07 00:37:47;;;;;;;108.23;99.91;;;;;;;21.88;65.14;100727.50;;;;-55
2020/08/07 00:40:46;;;;;;;131.99;121.47;;;;;;;21.87;65.11;100730.19;;;;-56
2020/08/07 00:43:46;;;;;;;116.39;107.25;;;;;;;21.87;65.12;100729.95;;;;-56
2020/08/07 00:46:46;;;;;;;117.60;108.33;;;;;;;21.86;65.15;100734.42;;;;-56
2020/08/07 00:49:46;;;;;;;110.19;101.57;;;;;;;21.87;65.13;100734.27;;;;-55
2020/08/07 00:52:46;;;;;;;137.35;126.35;;;;;;;21.86;65.16;100729.84;;;;-55
2020/08/07 00:55:46;;;;;;;132.44;121.77;;;;;;;21.86;65.10;100727.81;;;;-56
2020/08/07 00:58:47;;;;;;;122.28;112.69;;;;;;;21.86;65.11;100730.92;;;;-55
2020/08/07 01:01:47;;;;;;;120.03;110.67;;;;;;;21.85;65.11;100730.35;;;;-56
2020/08/07 01:04:47;;;;;;;129.91;119.17;;;;;;;21.85;65.12;100730.77;;;;-55
2020/08/07 01:07:46;;;;;;;101.11;93.31;;;;;;;21.85;65.07;100725.77;;;;-56
2020/08/07 01:10:46;;;;;;;104.97;96.71;;;;;;;21.84;65.13;100726.26;;;;-56
2020/08/07 01:13:46;;;;;;;120.96;111.34;;;;;;;21.85;65.11;100727.72;;;;-55
2020/08/07 01:16:46;;;;;;;108.43;99.95;;;;;;;21.85;65.13;100728.13;;;;-55
2020/08/07 01:19:46;;;;;;;113.10;104.27;;;;;;;21.84;65.17;100726.09;;;;-55
2020/08/07 01:22:46;;;;;;;92.49;85.23;;;;;;;21.84;65.16;100721.45;;;;-56
2020/08/07 01:25:46;;;;;;;93.80;86.47;;;;;;;21.83;65.16;100722.03;;;;-56
2020/08/07 01:28:46;;;;;;;114.33;105.33;;;;;;;21.83;65.19;100722.28;;;;-56
2020/08/07 01:31:47;;;;;;;119.13;109.68;;;;;;;21.82;65.14;100716.14;;;;-56
2020/08/07 01:34:47;;;;;;;101.63;93.69;;;;;;;21.82;65.14;100716.14;;;;-56
2020/08/07 01:37:47;;;;;;;118.92;109.53;;;;;;;21.83;65.16;100720.08;;;;-55
2020/08/07 01:40:46;;;;;;;123.85;114.05;;;;;;;21.82;65.14;100716.88;;;;-55
2020/08/07 01:43:46;;;;;;;130.35;119.95;;;;;;;21.82;65.18;100714.51;;;;-56
2020/08/07 01:46:46;;;;;;;123.93;114.15;;;;;;;21.82;65.20;100712.56;;;;-56
2020/08/07 01:49:46;;;;;;;118.22;108.79;;;;;;;21.82;65.13;100712.80;;;;-55
2020/08/07 01:52:46;;;;;;;111.43;102.85;;;;;;;21.82;65.12;100715.66;;;;-55
2020/08/07 01:55:46;;;;;;;130.72;120.29;;;;;;;21.81;65.12;100716.97;;;;-56
2020/08/07 01:58:46;;;;;;;123.05;113.21;;;;;;;21.81;65.13;100723.34;;;;-56
2020/08/07 02:01:46;;;;;;;139.61;128.44;;;;;;;21.81;65.13;100721.84;;;;-55
2020/08/07 02:04:47;;;;;;;108.86;100.33;;;;;;;21.80;65.11;100717.77;;;;-56
2020/08/07 02:07:47;;;;;;;132.78;122.27;;;;;;;21.81;65.12;100712.48;;;;-55
2020/08/07 02:10:47;;;;;;;130.15;119.86;;;;;;;21.80;65.09;100709.36;;;;-55
2020/08/07 02:13:46;;;;;;;130.55;120.32;;;;;;;21.81;65.10;100714.50;;;;-56
2020/08/07 02:16:46;;;;;;;126.55;116.46;;;;;;;21.80;65.11;100714.50;;;;-55
2020/08/07 02:19:46;;;;;;;119.19;109.75;;;;;;;21.80;65.11;100713.94;;;;-56
2020/08/07 02:22:46;;;;;;;120.48;111.05;;;;;;;21.80;65.14;100713.69;;;;-55
2020/08/07 02:25:46;;;;;;;134.29;123.41;;;;;;;21.80;65.08;100711.41;;;;-55
2020/08/07 02:28:46;;;;;;;137.23;126.25;;;;;;;21.79;65.08;100712.64;;;;-55
2020/08/07 02:31:46;;;;;;;130.71;120.39;;;;;;;21.79;65.12;100716.80;;;;-56
2020/08/07 02:34:46;;;;;;;122.10;112.53;;;;;;;21.79;65.09;100721.29;;;;-55
2020/08/07 02:37:46;;;;;;;126.47;116.53;;;;;;;21.79;65.08;100718.09;;;;-56
2020/08/07 02:40:47;;;;;;;135.67;124.84;;;;;;;21.79;65.13;100722.77;;;;-55
2020/08/07 02:43:47;;;;;;;113.49;104.63;;;;;;;21.78;65.13;100720.95;;;;-55
2020/08/07 02:46:46;;;;;;;135.26;124.59;;;;;;;21.78;65.12;100721.84;;;;-55
2020/08/07 02:49:46;;;;;;;134.89;124.13;;;;;;;21.78;65.06;100721.77;;;;-56
2020/08/07 02:52:46;;;;;;;136.20;125.44;;;;;;;21.78;65.11;100722.02;;;;-56
2020/08/07 02:55:46;;;;;;;130.07;119.76;;;;;;;21.77;65.14;100728.47;;;;-56
2020/08/07 02:58:46;;;;;;;134.61;123.87;;;;;;;21.77;65.15;100734.50;;;;-55
2020/08/07 03:01:46;;;;;;;110.15;101.55;;;;;;;21.77;65.12;100732.44;;;;-56
2020/08/07 03:04:46;;;;;;;136.67;125.71;;;;;;;21.76;65.09;100732.85;;;;-55
2020/08/07 03:07:46;;;;;;;131.43;120.97;;;;;;;21.77;65.14;100735.98;;;;-56
2020/08/07 03:10:46;;;;;;;118.71;109.40;;;;;;;21.77;65.15;100738.91;;;;-56
2020/08/07 03:13:46;;;;;;;120.23;110.89;;;;;;;21.76;65.14;100739.22;;;;-56
2020/08/07 03:16:46;;;;;;;108.61;100.22;;;;;;;21.76;65.08;100742.48;;;;-56
2020/08/07 03:19:46;;;;;;;97.85;90.29;;;;;;;21.76;65.17;100740.61;;;;-56
2020/08/07 03:22:46;;;;;;;123.25;113.53;;;;;;;21.76;65.13;100742.25;;;;-55
2020/08/07 03:25:46;;;;;;;117.30;108.13;;;;;;;21.75;65.12;100744.53;;;;-55
2020/08/07 03:28:46;;;;;;;125.01;115.17;;;;;;;21.76;65.11;100746.16;;;;-56
2020/08/07 03:31:46;;;;;;;129.70;119.45;;;;;;;21.75;65.07;100745.27;;;;-56
2020/08/07 03:34:46;;;;;;;126.24;116.22;;;;;;;21.75;65.10;100749.11;;;;-55
2020/08/07 03:37:46;;;;;;;140.63;129.31;;;;;;;21.76;65.08;100748.45;;;;-55
2020/08/07 03:40:46;;;;;;;127.77;117.68;;;;;;;21.76;65.10;100745.84;;;;-55
2020/08/07 03:43:46;;;;;;;131.01;120.59;;;;;;;21.75;65.11;100747.72;;;;-56
2020/08/07 03:46:47;;;;;;;121.99;112.50;;;;;;;21.75;65.12;100750.50;;;;-55
2020/08/07 03:49:47;;;;;;;141.87;130.55;;;;;;;21.74;65.10;100752.68;;;;-55
2020/08/07 03:52:46;;;;;;;146.05;134.11;;;;;;;21.74;65.13;100754.22;;;;-55
2020/08/07 03:55:46;;;;;;;149.87;137.77;;;;;;;21.74;65.06;100757.49;;;;-55
2020/08/07 03:58:46;;;;;;;138.32;127.21;;;;;;;21.74;65.10;100760.67;;;;-55
2020/08/07 04:01:47;;;;;;;136.57;125.62;;;;;;;21.74;65.10;100762.48;;;;-55
2020/08/07 04:04:46;;;;;;;138.49;127.35;;;;;;;21.74;65.11;100767.70;;;;-55
2020/08/07 04:07:46;;;;;;;111.43;102.68;;;;;;;21.74;65.06;100768.83;;;;-56
2020/08/07 04:10:46;;;;;;;122.37;112.79;;;;;;;21.74;65.06;100774.13;;;;-55
2020/08/07 04:13:46;;;;;;;125.95;116.13;;;;;;;21.74;65.09;100774.62;;;;-56
2020/08/07 04:16:46;;;;;;;133.73;123.06;;;;;;;21.72;65.51;100776.83;;;;-55
2020/08/07 04:19:46;;;;;;;124.43;114.63;;;;;;;21.64;65.59;100781.45;;;;-55
2020/08/07 04:22:46;;;;;;;131.71;121.14;;;;;;;21.55;65.76;100781.11;;;;-55
2020/08/07 04:25:46;;;;;;;137.74;126.65;;;;;;;21.50;65.50;100780.59;;;;-54
2020/08/07 04:28:46;;;;;;;138.95;127.80;;;;;;;21.46;65.47;100784.11;;;;-55
2020/08/07 04:31:46;;;;;;;126.31;116.28;;;;;;;21.40;65.66;100786.02;;;;-55
2020/08/07 04:34:46;;;;;;;132.01;121.14;;;;;;;21.36;65.76;100787.47;;;;-55
2020/08/07 04:37:46;;;;;;;127.20;117.03;;;;;;;21.30;65.83;100789.96;;;;-55
2020/08/07 04:40:46;;;;;;;135.93;124.83;;;;;;;21.24;65.99;100791.65;;;;-55
2020/08/07 04:43:46;;;;;;;139.23;128.03;;;;;;;21.22;65.90;100795.88;;;;-55
2020/08/07 04:46:46;;;;;;;114.70;105.85;;;;;;;21.22;65.96;100802.16;;;;-55
2020/08/07 04:49:46;;;;;;;135.39;124.48;;;;;;;21.18;66.22;100805.55;;;;-55
2020/08/07 04:52:47;;;;;;;133.29;122.62;;;;;;;21.15;66.22;100805.55;;;;-55
2020/08/07 04:55:46;;;;;;;126.36;116.26;;;;;;;21.14;66.20;100809.85;;;;-55
2020/08/07 04:58:46;;;;;;;132.07;121.51;;;;;;;21.13;66.39;100814.84;;;;-56
2020/08/07 05:01:46;;;;;;;126.13;116.01;;;;;;;21.06;66.92;100820.10;;;;-55
2020/08/07 05:04:46;;;;;;;101.67;93.67;;;;;;;21.06;67.11;100818.86;;;;-55
2020/08/07 05:07:46;;;;;;;119.60;110.13;;;;;;;21.05;67.14;100823.27;;;;-54
2020/08/07 05:10:46;;;;;;;110.85;102.08;;;;;;;21.05;67.03;100821.64;;;;-55
2020/08/07 05:13:46;;;;;;;114.69;105.73;;;;;;;21.05;66.97;100820.00;;;;-55
2020/08/07 05:16:46;;;;;;;118.49;109.17;;;;;;;21.03;67.21;100822.67;;;;-55
2020/08/07 05:19:46;;;;;;;108.31;99.94;;;;;;;21.04;67.19;100827.56;;;;-55
2020/08/07 05:22:46;;;;;;;109.76;101.15;;;;;;;21.04;66.93;100828.54;;;;-55
2020/08/07 05:25:46;;;;;;;121.18;111.48;;;;;;;21.04;67.23;100829.92;;;;-55
2020/08/07 05:28:46;;;;;;;119.83;110.29;;;;;;;21.04;67.03;100828.08;;;;-55
2020/08/07 05:31:46;;;;;;;107.88;99.39;;;;;;;21.04;67.40;100826.17;;;;-55
2020/08/07 05:34:46;;;;;;;123.49;113.69;;;;;;;21.06;67.60;100826.11;;;;-53
2020/08/07 05:37:46;;;;;;;125.45;115.63;;;;;;;21.07;67.69;100827.92;;;;-53
2020/08/07 05:40:46;;;;;;;127.59;117.53;;;;;;;21.06;68.03;100826.95;;;;-53
2020/08/07 05:43:46;;;;;;;126.01;116.01;;;;;;;21.08;68.04;100829.55;;;;-53
2020/08/07 05:46:46;;;;;;;108.49;99.70;;;;;;;21.08;68.27;100830.37;;;;-53
2020/08/07 05:49:46;;;;;;;109.21;100.56;;;;;;;21.10;68.50;100837.13;;;;-53
2020/08/07 05:53:47;;;;;;;103.11;94.99;;;;;;;21.12;68.28;100833.31;;;;-52
2020/08/07 05:56:46;;;;;;;113.95;104.79;;;;;;;21.10;68.13;100838.59;;;;-53
2020/08/07 05:59:46;;;;;;;115.90;106.71;;;;;;;21.09;68.31;100837.88;;;;-53
2020/08/07 06:02:46;;;;;;;106.85;98.47;;;;;;;21.09;68.63;100839.75;;;;-53
2020/08/07 06:06:46;;;;;;;109.87;101.05;;;;;;;21.10;68.62;100843.33;;;;-53
2020/08/07 06:09:46;;;;;;;108.20;99.73;;;;;;;21.11;68.79;100842.78;;;;-53
2020/08/07 06:12:46;;;;;;;101.08;92.99;;;;;;;21.13;68.84;100845.41;;;;-53
2020/08/07 06:15:46;;;;;;;106.28;97.94;;;;;;;21.13;68.97;100844.98;;;;-53
2020/08/07 06:18:46;;;;;;;106.58;98.11;;;;;;;21.15;70.22;100846.39;;;;-53
2020/08/07 06:21:46;;;;;;;99.64;91.68;;;;;;;21.16;70.02;100846.70;;;;-53
2020/08/07 06:24:46;;;;;;;104.72;96.35;;;;;;;21.17;70.05;100843.30;;;;-53
2020/08/07 06:27:46;;;;;;;92.69;85.31;;;;;;;21.18;70.12;100845.66;;;;-52
2020/08/07 06:30:46;;;;;;;110.46;101.60;;;;;;;21.19;70.27;100849.10;;;;-53
2020/08/07 06:33:46;;;;;;;114.50;105.23;;;;;;;21.20;69.70;100852.51;;;;-53
2020/08/07 06:36:46;;;;;;;107.89;99.23;;;;;;;21.22;69.55;100852.61;;;;-53
2020/08/07 06:39:46;;;;;;;106.57;97.95;;;;;;;21.23;69.51;100845.67;;;;-53
2020/08/07 06:42:46;;;;;;;112.71;103.09;;;;;;;21.24;69.74;100848.54;;;;-53
2020/08/07 06:45:46;;;;;;;93.84;86.24;;;;;;;21.26;69.58;100843.25;;;;-53
2020/08/07 06:48:46;;;;;;;104.36;95.11;;;;;;;21.29;69.41;100847.09;;;;-54
2020/08/07 06:51:46;;;;;;;100.71;92.12;;;;;;;21.32;69.22;100849.08;;;;-53
2020/08/07 06:54:46;;;;;;;88.08;79.57;;;;;;;21.34;69.61;100850.40;;;;-54
2020/08/07 06:57:46;;;;;;;75.25;67.90;;;;;;;21.36;69.62;100848.84;;;;-52
2020/08/07 07:00:46;;;;;;;97.22;88.64;;;;;;;21.37;69.05;100847.45;;;;-53
2020/08/07 07:03:46;;;;;;;102.53;93.71;;;;;;;21.37;68.88;100848.03;;;;-53
2020/08/07 07:06:46;;;;;;;89.49;82.03;;;;;;;21.37;68.83;100845.50;;;;-53
2020/08/07 07:09:46;;;;;;;88.49;81.21;;;;;;;21.36;68.74;100844.53;;;;-53
2020/08/07 07:12:46;;;;;;;89.43;82.22;;;;;;;21.37;68.60;100846.56;;;;-53
2020/08/07 07:15:56;;;;;;;93.06;85.56;;;;;;;21.37;68.53;100846.16;;;;-53
2020/08/07 07:21:46;;;;;;;87.95;80.72;;;;;;;21.37;68.28;100845.50;;;;-53
2020/08/07 07:24:46;;;;;;;88.73;81.48;;;;;;;21.37;68.20;100847.22;;;;-52
2020/08/07 07:27:46;;;;;;;90.69;83.22;;;;;;;21.37;68.09;100849.20;;;;-53
2020/08/07 07:30:46;;;;;;;93.19;85.63;;;;;;;21.38;68.10;100849.11;;;;-53
2020/08/07 07:33:46;;;;;;;90.31;83.01;;;;;;;21.37;68.00;100847.56;;;;-53
2020/08/07 07:36:46;;;;;;;102.01;93.89;;;;;;;21.38;68.00;100844.06;;;;-53
2020/08/07 07:39:46;;;;;;;98.72;90.95;;;;;;;21.38;67.91;100849.11;;;;-53
2020/08/07 07:42:46;;;;;;;80.19;73.67;;;;;;;21.40;68.17;100841.53;;;;-48
2020/08/07 07:45:46;;;;;;;86.13;79.05;;;;;;;21.42;68.27;100837.58;;;;-51
2020/08/07 07:48:46;;;;;;;94.34;86.61;;;;;;;21.44;68.22;100837.34;;;;-48
2020/08/07 07:51:46;;;;;;;91.06;83.48;;;;;;;21.46;68.06;100838.25;;;;-46
2020/08/07 07:54:46;;;;;;;92.11;84.70;;;;;;;21.49;68.04;100835.64;;;;-49
2020/08/07 07:57:46;;;;;;;86.69;79.57;;;;;;;21.51;68.16;100835.16;;;;-47
2020/08/07 08:00:46;;;;;;;93.15;85.82;;;;;;;21.52;68.10;100834.28;;;;-51
2020/08/07 08:03:46;;;;;;;83.25;76.35;;;;;;;21.55;68.01;100830.13;;;;-54
2020/08/07 08:06:46;;;;;;;86.59;79.41;;;;;;;21.57;68.00;100829.23;;;;-54
2020/08/07 08:09:46;;;;;;;103.00;94.49;;;;;;;21.59;68.14;100824.84;;;;-46
2020/08/07 08:12:46;;;;;;;91.13;83.21;;;;;;;21.62;68.20;100830.00;;;;-45
2020/08/07 08:15:46;;;;;;;106.95;97.99;;;;;;;21.64;67.92;100825.17;;;;-55
2020/08/07 08:18:46;;;;;;;90.75;82.55;;;;;;;21.65;68.18;100828.28;;;;-54
2020/08/07 08:21:46;;;;;;;105.42;96.76;;;;;;;21.67;68.06;100831.39;;;;-51
2020/08/07 08:24:46;;;;;;;95.83;87.72;;;;;;;21.70;68.06;100829.11;;;;-57
2020/08/07 08:27:46;;;;;;;102.36;93.67;;;;;;;21.71;67.90;100826.67;;;;-46
2020/08/07 08:30:46;;;;;;;96.46;88.51;;;;;;;21.73;67.89;100825.20;;;;-47
2020/08/07 08:33:46;;;;;;;97.90;89.95;;;;;;;21.74;67.98;100825.36;;;;-48
2020/08/07 08:36:46;;;;;;;97.05;88.68;;;;;;;21.76;67.87;100822.69;;;;-51
2020/08/07 08:39:46;;;;;;;106.95;97.72;;;;;;;21.77;67.66;100819.67;;;;-45
2020/08/07 08:42:46;;;;;;;106.59;97.32;;;;;;;21.80;67.87;100823.67;;;;-46
2020/08/07 08:45:46;;;;;;;101.69;92.88;;;;;;;21.80;67.61;100822.53;;;;-45
2020/08/07 08:48:46;;;;;;;101.74;92.55;;;;;;;21.79;67.65;100819.69;;;;-46
2020/08/07 08:51:46;;;;;;;102.66;93.53;;;;;;;21.80;67.68;100818.45;;;;-45
2020/08/07 08:57:46;;;;;;;99.89;90.57;;;;;;;21.80;67.46;100811.67;;;;-48
2020/08/07 09:00:46;;;;;;;100.91;92.25;;;;;;;21.81;67.48;100814.31;;;;-45
2020/08/07 09:03:46;;;;;;;99.86;91.01;;;;;;;21.83;67.46;100813.06;;;;-52
2020/08/07 09:06:46;;;;;;;100.89;92.51;;;;;;;21.84;67.41;100808.34;;;;-52
2020/08/07 09:09:46;;;;;;;97.02;88.90;;;;;;;21.85;67.34;100804.36;;;;-55
2020/08/07 09:12:46;;;;;;;101.20;92.87;;;;;;;21.85;67.52;100805.09;;;;-45
2020/08/07 09:15:46;;;;;;;115.59;105.98;;;;;;;21.87;67.49;100805.51;;;;-45
2020/08/07 09:18:46;;;;;;;119.47;109.67;;;;;;;21.87;67.42;100799.85;;;;-48
2020/08/07 09:21:46;;;;;;;118.83;108.74;;;;;;;21.88;67.48;100799.37;;;;-44
2020/08/07 09:24:46;;;;;;;95.10;87.15;;;;;;;21.90;67.38;100793.50;;;;-52
2020/08/07 09:27:46;;;;;;;120.79;110.97;;;;;;;21.92;67.31;100796.78;;;;-48
2020/08/07 09:30:46;;;;;;;120.79;110.73;;;;;;;21.92;67.29;100789.67;;;;-48
2020/08/07 09:33:46;;;;;;;125.49;115.09;;;;;;;21.93;67.30;100792.44;;;;-50
2020/08/07 09:36:46;;;;;;;112.67;103.31;;;;;;;21.95;67.22;100790.40;;;;-49
2020/08/07 09:39:46;;;;;;;104.47;95.90;;;;;;;21.96;67.25;100787.48;;;;-48
2020/08/07 09:42:46;;;;;;;118.27;108.73;;;;;;;21.97;67.22;100786.90;;;;-51
2020/08/07 09:45:46;;;;;;;111.29;101.76;;;;;;;21.97;67.35;100783.79;;;;-50
2020/08/07 09:48:47;;;;;;;116.35;106.81;;;;;;;21.98;67.19;100784.95;;;;-51
2020/08/07 09:51:46;;;;;;;123.10;113.19;;;;;;;21.98;67.16;100785.44;;;;-48
2020/08/07 09:54:46;;;;;;;119.70;109.58;;;;;;;21.99;67.05;100786.50;;;;-48
2020/08/07 09:57:46;;;;;;;127.77;116.93;;;;;;;21.98;67.06;100779.08;;;;-48
2020/08/07 10:00:46;;;;;;;126.11;115.64;;;;;;;21.98;67.12;100775.81;;;;-48
2020/08/07 10:03:46;;;;;;;112.81;103.43;;;;;;;21.99;67.23;100775.07;;;;-46
2020/08/07 10:06:46;;;;;;;127.63;117.43;;;;;;;22.00;67.10;100776.96;;;;-46
2020/08/07 10:09:46;;;;;;;135.95;124.63;;;;;;;22.00;67.12;100770.10;;;;-52
2020/08/07 10:12:46;;;;;;;125.51;115.11;;;;;;;22.02;66.93;100767.58;;;;-50
2020/08/07 10:15:46;;;;;;;122.57;112.43;;;;;;;22.03;66.99;100771.40;;;;-57
2020/08/07 10:18:46;;;;;;;122.70;112.52;;;;;;;22.03;67.14;100763.89;;;;-51
2020/08/07 10:21:46;;;;;;;138.44;126.79;;;;;;;22.05;66.96;100760.71;;;;-51
2020/08/07 10:24:46;;;;;;;121.94;111.81;;;;;;;22.05;67.10;100763.48;;;;-48
2020/08/07 10:27:46;;;;;;;141.37;129.57;;;;;;;22.06;67.11;100760.64;;;;-45
2020/08/07 10:30:46;;;;;;;149.03;136.27;;;;;;;22.08;67.03;100754.74;;;;-50
2020/08/07 10:33:46;;;;;;;146.97;134.47;;;;;;;22.10;67.09;100751.97;;;;-52
2020/08/07 10:36:46;;;;;;;131.09;120.23;;;;;;;22.12;67.07;100744.05;;;;-46
2020/08/07 10:39:46;;;;;;;130.05;118.81;;;;;;;22.13;66.95;100746.76;;;;-43
2020/08/07 10:42:46;;;;;;;146.96;134.50;;;;;;;22.14;67.12;100746.61;;;;-47
2020/08/07 10:45:46;;;;;;;135.43;123.91;;;;;;;22.15;67.14;100740.88;;;;-47
2020/08/07 10:48:46;;;;;;;135.51;123.75;;;;;;;22.15;66.88;100744.14;;;;-46
2020/08/07 10:51:46;;;;;;;139.55;127.47;;;;;;;22.16;67.02;100744.38;;;;-56
2020/08/07 10:54:46;;;;;;;142.78;130.97;;;;;;;22.16;67.06;100739.64;;;;-53
2020/08/07 10:57:46;;;;;;;154.14;140.99;;;;;;;22.15;67.06;100739.57;;;;-55
2020/08/07 11:00:58;;;;;;;132.75;121.32;;;;;;;22.16;66.87;100735.34;;;;-54
2020/08/07 11:03:46;;;;;;;131.65;120.65;;;;;;;22.15;66.59;100731.91;;;;-53
2020/08/07 11:06:46;;;;;;;127.05;116.18;;;;;;;22.14;66.87;100726.09;;;;-53
2020/08/07 11:09:46;;;;;;;127.35;116.92;;;;;;;22.14;66.88;100728.86;;;;-53
2020/08/07 11:12:46;;;;;;;124.72;114.45;;;;;;;22.14;66.72;100731.15;;;;-53
2020/08/07 11:15:46;;;;;;;132.98;121.61;;;;;;;22.13;66.76;100729.53;;;;-54
2020/08/07 11:18:46;;;;;;;157.96;144.55;;;;;;;22.13;66.71;100725.13;;;;-52
2020/08/07 11:21:46;;;;;;;156.29;143.21;;;;;;;22.11;66.77;100717.86;;;;-53
2020/08/07 11:24:46;;;;;;;142.52;130.81;;;;;;;22.11;66.59;100720.48;;;;-52
2020/08/07 11:27:46;;;;;;;154.83;141.99;;;;;;;22.11;66.60;100718.11;;;;-53
2020/08/07 11:30:46;;;;;;;180.67;165.21;;;;;;;22.10;66.58;100710.17;;;;-53
2020/08/07 11:33:46;;;;;;;177.41;162.33;;;;;;;22.10;66.54;100711.56;;;;-52
2020/08/07 11:36:46;;;;;;;166.71;152.27;;;;;;;22.09;66.56;100704.55;;;;-53
2020/08/07 11:39:46;;;;;;;191.28;175.09;;;;;;;22.08;66.51;100706.12;;;;-53
2020/08/07 11:42:46;;;;;;;168.00;153.85;;;;;;;22.08;66.52;100704.30;;;;-53
2020/08/07 11:45:46;;;;;;;165.70;151.69;;;;;;;22.08;66.48;100701.03;;;;-52
2020/08/07 11:48:46;;;;;;;191.33;174.56;;;;;;;22.07;66.47;100698.93;;;;-53
2020/08/07 11:51:46;;;;;;;187.95;172.12;;;;;;;22.07;66.45;100701.53;;;;-52
2020/08/07 11:54:46;;;;;;;200.19;182.09;;;;;;;22.08;66.54;100693.71;;;;-50
2020/08/07 11:57:46;;;;;;;185.33;168.45;;;;;;;22.08;66.51;100692.81;;;;-55
2020/08/07 12:00:46;;;;;;;202.49;184.79;;;;;;;22.09;66.57;100690.52;;;;-53
2020/08/07 12:03:46;;;;;;;169.91;154.74;;;;;;;22.10;66.55;100681.14;;;;-51
2020/08/07 12:06:46;;;;;;;173.12;158.14;;;;;;;22.12;66.58;100679.51;;;;-54
2020/08/07 12:09:46;;;;;;;191.96;175.09;;;;;;;22.13;66.76;100675.49;;;;-57
2020/08/07 12:12:46;;;;;;;195.43;177.95;;;;;;;22.13;66.76;100671.66;;;;-51
2020/08/07 12:15:46;;;;;;;136.47;124.68;;;;;;;22.14;66.81;100673.95;;;;-53
2020/08/07 12:18:46;;;;;;;162.32;147.99;;;;;;;22.16;66.80;100675.23;;;;-51
2020/08/07 12:21:46;;;;;;;153.68;140.21;;;;;;;22.17;66.72;100675.09;;;;-54
2020/08/07 12:24:46;;;;;;;161.57;147.94;;;;;;;22.17;66.68;100677.61;;;;-52
2020/08/07 12:27:47;;;;;;;163.16;148.70;;;;;;;22.17;66.65;100676.55;;;;-51
2020/08/07 12:30:46;;;;;;;163.99;149.75;;;;;;;22.17;66.66;100672.15;;;;-51
2020/08/07 12:33:46;;;;;;;191.67;175.07;;;;;;;22.19;66.70;100671.73;;;;-52
2020/08/07 12:36:46;;;;;;;194.62;177.79;;;;;;;22.16;66.51;100668.89;;;;-53
2020/08/07 12:40:21;;;;;;;170.67;155.98;;;;;;;22.15;66.57;100669.45;;;;-52
2020/08/07 12:42:46;;;;;;;177.51;162.20;;;;;;;22.14;66.54;100666.17;;;;-53
2020/08/07 12:45:46;;;;;;;189.03;172.39;;;;;;;22.13;66.54;100666.84;;;;-52
2020/08/07 12:48:46;;;;;;;191.13;174.91;;;;;;;22.13;66.58;100666.69;;;;-53
2020/08/07 12:51:46;;;;;;;185.89;169.96;;;;;;;22.11;66.54;100662.11;;;;-53
2020/08/07 12:54:46;;;;;;;187.27;170.88;;;;;;;22.11;66.56;100654.60;;;;-52
2020/08/07 12:57:46;;;;;;;187.66;171.43;;;;;;;22.11;66.54;100652.48;;;;-52
2020/08/07 13:00:46;;;;;;;207.02;189.52;;;;;;;22.10;66.50;100655.23;;;;-52
2020/08/07 13:03:46;;;;;;;179.45;164.23;;;;;;;22.10;66.54;100659.75;;;;-52
2020/08/07 13:06:46;;;;;;;174.42;159.60;;;;;;;22.09;66.45;100649.86;;;;-52
2020/08/07 13:09:46;;;;;;;157.15;143.81;;;;;;;22.10;66.42;100651.57;;;;-52
2020/08/07 13:12:46;;;;;;;169.79;155.48;;;;;;;22.10;66.38;100646.67;;;;-52
2020/08/07 13:15:46;;;;;;;164.67;150.88;;;;;;;22.09;66.36;100643.02;;;;-52
2020/08/07 13:18:46;;;;;;;164.64;150.88;;;;;;;22.09;66.33;100648.72;;;;-52
2020/08/07 13:21:46;;;;;;;150.90;138.41;;;;;;;22.09;66.33;100646.52;;;;-52
2020/08/07 13:24:46;;;;;;;146.18;133.93;;;;;;;22.09;66.30;100646.86;;;;-51
2020/08/07 13:27:46;;;;;;;156.53;143.46;;;;;;;22.09;66.29;100648.89;;;;-52
2020/08/07 13:30:46;;;;;;;136.74;125.68;;;;;;;22.08;66.32;100642.22;;;;-52
2020/08/07 13:33:46;;;;;;;145.23;133.26;;;;;;;22.07;66.29;100638.44;;;;-52
2020/08/07 13:36:46;;;;;;;151.69;139.09;;;;;;;22.06;66.35;100639.59;;;;-51
2020/08/07 13:39:46;;;;;;;151.32;138.79;;;;;;;22.07;66.34;100632.98;;;;-52
2020/08/07 13:42:46;;;;;;;158.21;145.19;;;;;;;22.06;66.30;100633.39;;;;-52
2020/08/07 13:45:46;;;;;;;155.73;142.51;;;;;;;22.06;66.29;100633.23;;;;-52
2020/08/07 13:48:46;;;;;;;170.25;155.64;;;;;;;22.05;66.30;100631.75;;;;-52
2020/08/07 13:51:46;;;;;;;170.14;155.75;;;;;;;22.05;66.30;100634.05;;;;-52
2020/08/07 13:54:46;;;;;;;171.53;156.75;;;;;;;22.04;66.29;100630.22;;;;-53
2020/08/07 13:57:46;;;;;;;178.60;163.55;;;;;;;22.04;66.23;100626.79;;;;-53
2020/08/07 14:00:46;;;;;;;166.33;152.38;;;;;;;22.04;66.30;100616.51;;;;-52
2020/08/07 14:03:46;;;;;;;179.01;163.89;;;;;;;22.05;66.26;100617.48;;;;-52
2020/08/07 14:06:46;;;;;;;175.50;160.77;;;;;;;22.05;66.21;100616.73;;;;-52
2020/08/07 14:09:46;;;;;;;166.47;152.34;;;;;;;22.04;66.21;100613.90;;;;-52
2020/08/07 14:12:46;;;;;;;178.58;163.52;;;;;;;22.04;66.19;100609.98;;;;-52
2020/08/07 14:15:46;;;;;;;192.41;176.11;;;;;;;22.05;66.25;100612.33;;;;-50
2020/08/07 14:18:46;;;;;;;167.15;153.10;;;;;;;22.04;66.18;100599.30;;;;-52
2020/08/07 14:21:46;;;;;;;168.01;153.93;;;;;;;22.05;66.20;100603.11;;;;-52
2020/08/07 14:24:46;;;;;;;189.20;173.23;;;;;;;22.05;66.18;100603.77;;;;-52
2020/08/07 14:27:46;;;;;;;170.59;156.09;;;;;;;22.05;66.17;100607.03;;;;-51
2020/08/07 14:30:46;;;;;;;175.35;160.34;;;;;;;22.04;66.19;100601.00;;;;-52
2020/08/07 14:33:46;;;;;;;161.15;147.61;;;;;;;22.04;66.18;100600.34;;;;-45
2020/08/07 14:36:46;;;;;;;172.23;157.53;;;;;;;22.06;66.30;100600.44;;;;-51
2020/08/07 14:39:46;;;;;;;162.82;148.78;;;;;;;22.07;66.24;100596.42;;;;-48
2020/08/07 14:42:46;;;;;;;182.66;167.35;;;;;;;22.06;66.23;100600.92;;;;-49
2020/08/07 14:45:46;;;;;;;184.67;168.74;;;;;;;22.06;66.25;100595.85;;;;-49
2020/08/07 14:48:46;;;;;;;183.57;168.05;;;;;;;22.06;66.30;100593.56;;;;-48
2020/08/07 14:51:46;;;;;;;165.93;152.18;;;;;;;22.06;66.25;100588.67;;;;-47
2020/08/07 14:54:46;;;;;;;160.62;147.21;;;;;;;22.05;66.23;100588.02;;;;-48
2020/08/07 14:57:46;;;;;;;191.93;175.79;;;;;;;22.05;66.26;100591.11;;;;-47
2020/08/07 15:03:46;;;;;;;110.71;101.40;;;;;;;22.06;66.50;100584.98;;;;-47
2020/08/07 15:06:46;;;;;;;130.96;120.11;;;;;;;22.05;66.39;100581.07;;;;-48
2020/08/07 15:09:46;;;;;;;130.86;120.02;;;;;;;22.04;66.30;100576.50;;;;-48
2020/08/07 15:12:46;;;;;;;123.88;113.60;;;;;;;22.03;66.24;100579.84;;;;-48
2020/08/07 15:15:46;;;;;;;130.09;119.36;;;;;;;22.03;66.30;100570.80;;;;-47
2020/08/07 15:18:47;;;;;;;108.18;99.49;;;;;;;22.02;66.25;100569.27;;;;-48
2020/08/07 15:21:46;;;;;;;126.35;116.07;;;;;;;22.02;66.21;100569.81;;;;-48
2020/08/07 15:24:46;;;;;;;142.09;130.33;;;;;;;22.00;66.19;100568.03;;;;-46
2020/08/07 15:27:46;;;;;;;141.04;129.37;;;;;;;22.01;66.20;100568.77;;;;-47
2020/08/07 15:30:46;;;;;;;156.83;143.71;;;;;;;22.00;66.19;100564.36;;;;-46
2020/08/07 15:33:46;;;;;;;147.43;134.87;;;;;;;22.00;66.19;100564.21;;;;-47
2020/08/07 15:36:46;;;;;;;134.97;123.77;;;;;;;21.99;66.18;100566.55;;;;-48
2020/08/07 15:39:46;;;;;;;166.81;152.21;;;;;;;21.99;66.16;100568.92;;;;-47
2020/08/07 15:42:46;;;;;;;162.75;149.06;;;;;;;21.98;66.19;100566.08;;;;-48
2020/08/07 15:45:46;;;;;;;154.67;141.58;;;;;;;21.99;66.14;100570.47;;;;-48
2020/08/07 15:48:46;;;;;;;172.75;158.30;;;;;;;21.98;66.17;100561.19;;;;-48
2020/08/07 15:51:46;;;;;;;147.03;134.56;;;;;;;21.98;66.21;100558.17;;;;-49
2020/08/07 15:54:46;;;;;;;162.55;148.34;;;;;;;21.98;66.37;100559.47;;;;-51
2020/08/07 15:57:46;;;;;;;167.77;153.21;;;;;;;21.99;66.35;100555.38;;;;-51
2020/08/07 16:00:46;;;;;;;149.15;136.19;;;;;;;21.98;66.17;100560.53;;;;-51
2020/08/07 16:03:46;;;;;;;149.18;136.55;;;;;;;21.99;66.15;100560.19;;;;-51